Newberry, MI

12:43 AM EST on February 21, 2017 (GMT -0500)
Luce County | | Change Station
Active Advisory: Small Craft Advisory

Elev 866 ft 46.31 °N, 85.46 °W | Updated 9 minutes ago

Rain
Rain
34 °F
Feels Like 25 °F
N
14
Wind Variable Wind from SE
Gusts 18 mph

Today
High -- | Low -- °F
--% Chance of Precip.
Yesterday
High -- | Low -- °F
Precip. -- in
Pressure 29.87 in
Visibility 7.0 miles
Clouds Mostly Cloudy 6000 ft
Overcast 8000 ft
Windchill 25 °F
Dew Point 33 °F
Humidity 97%
Rainfall 0.01 in
Snow Depth Not available.
7:34 AM 6:17 PM
Waning Crescent, 28% visible
METAR KERY 210534Z AUTO 13012G16KT 7SM -RA BKN060 OVC080 01/01 A2987 RMK AO2 P0001 T00130008
Pressure 29.87 in
Visibility 7.0 miles
Clouds Mostly Cloudy 6000 ft
Overcast 8000 ft
Windchill 25 °F
Dew Point 33 °F
Humidity 97%
Rainfall 0.01 in
Snow Depth Not available.
7:34 AM 6:17 PM
Waning Crescent, 28% visible
METAR KERY 210534Z AUTO 13012G16KT 7SM -RA BKN060 OVC080 01/01 A2987 RMK AO2 P0001 T00130008

Get Your Daily Forecast Email!

Thanks for signing up!

Be on the lookout for a verification email in your inbox.

You'll start receiving the daily forecast at 8 AM.

×

10-Day Weather Forecast

Almanac

Astronomy

Feb. 21, 2017 Rise Set
Actual Time
Civil Twilight
Nautical Twilight
Astronomical Twilight
Moon
Length of Visible Light
Length of Day
Tomorrow will be .
, % of the Moon is Illuminated

Today's Extremes

State Highs State Lows

Community

WunderPhotos

Upload Photos

1,962,540 photos uploaded!

WunderBlog® & News

Nearby

Air Quality

  Air Quality AQ Index Pollutant
Not available.

Snow Depth

Station Depth Elevation

Earthquake Activity

City Distance Mag. Time & Date
Minimum magnitude displayed is 2.5.

Coastal Water Temperatures

Place Temperature

Stations

Nearby Weather Stations

Station Location Temp. Windchill Dew Point Humidity Wind Precip. Elev Updated Type
                   

Watches & Warnings

Small Craft Advisory
Issued: 10:50 PM EST Feb. 20, 2017 – National Weather Service

... Small Craft Advisory remains in effect until 7 am EST
Tuesday...

A Small Craft Advisory remains in effect until 7 am EST Tuesday.

* Please see the latest marine forecasts for more detailed
information.

Precautionary/preparedness actions

Inexperienced mariners... especially those operating smaller
vessels should avoid navigating in these conditions.